Airfield :
LOGIN :

Register | Disclaimer

   EN    FR    IT 

 










Legend :    VFR   Marginal VFR   IFR   Intensive IFR   Very Intensive IFR
Visi :
Ceiling :
>= 8 km
>= 3000ft
5 to 8 km
1000 to 3000 ft
1500m to 5 km
500 to 1000 ft
800 to 1500m
200 to 500 ft
< 800m
< 200 ft
Symbols :   Thunderstorms  Fog  Heavy snow  Heavy precipitations  Wind > 20 kt
SIGMETs :     Misc.  Thunderstorms  Icing  Turbulence  Mountain Waves  Volcanic Ashes






- Airport Elevation : 885 ft
- IATA code : BAS


LFSB - Bale-Mulhouse

CURRENT METAR :
  • 130400Z AUTO VRB01KT CAVOK M00/M01 Q1028 NOSIG

EXPIRED METARs :
  • 130330Z AUTO 00000KT CAVOK M00/M01 Q1029 NOSIG
  • 130300Z AUTO 29001KT CAVOK M01/M01 Q1029 NOSIG
  • 130230Z AUTO VRB02KT CAVOK M01/M02 Q1028 NOSIG
  • 130200Z AUTO 00000KT CAVOK M01/M02 Q1028 NOSIG
  • 130130Z AUTO 19002KT CAVOK M01/M02 Q1028 NOSIG

TAF TAF LFSB
Valid from the 13 at 00:00 until the 14 at 00:00 UTC


122300Z 1300/1324 VRB03KT CAVOK
BECMG 1308/1310 36008KT FEW030TCU SCT050
PROB40
TEMPO 1311/1320 -SHRA
PROB40
TEMPO 1311/1318 06010KT
BECMG 1319/1321 VRB04KT CAVOK
Met : +33 3 89 90 31 11



MET'MAP, your aeronautical weather chart ! - Copyright ORBIFLY December 2007 - Disclaimer

ORBIFLY MET'MAP TEAM :

Programming & Development : Alexandra Zaïnal
Concept & original design : Baudouin d'Aumeries
Assistance for programming : Marc-Olivier Méhu
Technical & hardware support : Manuel Goepfert

Contact : metmap@orbifly.com




SOURCES & CREDITS :

   NOAA